Ocean Beaut — WDD7485 — position and weather

sailwx.info

Track history (hours):
 
Tides and Currents Weather Stations Pressure Air Temp Water Temp Dewpoint Dewpoint Depression Visibility Wind Speed Wind Dir Waves Ship Positions

Ocean Beaut

Owner: John Moreland Fishing Inc., Astoria, OR. More information available from US FCC via Universal Licensing System.

Last reported at 2018-May-26 14:00 UTC. Time now 2018-May-26 14:09 UTC.
Position N 45°60' W 124°47'.

Length 20 m.

Type: Fishing. MMSI: 367187080.

Date/timePositionNaut miles runAvg speedWind from/ knotsBaromVisibWave heightAir tempDewpointWater temp
2018-May-26 14:00N 45°60' W 124°47'6 2.1
2018-May-26 11:04N 46°06' W 124°45'4 4.2
2018-May-26 10:14N 46°09' W 124°42'2 8.0
2018-May-26 10:00N 46°09' W 124°39'4 8.0
2018-May-26 09:30N 46°09' W 124°33'4 7.5
2018-May-26 09:00N 46°10' W 124°28'4 7.4
2018-May-26 08:30N 46°11' W 124°23'4 8.1
2018-May-26 08:00N 46°12' W 124°17'4 8.8
2018-May-26 07:30N 46°13' W 124°11'5 9.4
2018-May-26 06:58N 46°15' W 124°05'4 8.2
2018-May-26 06:30N 46°14' W 123°59'6 6.1
2018-May-26 05:30N 46°11' W 123°51'0 0.0
2018-May-26 05:00N 46°11' W 123°51'0 0.0
2018-May-26 04:30N 46°11' W 123°51'2 3.1
2018-May-26 04:01N 46°12' W 123°49'1 1.7
2018-May-26 03:29N 46°12' W 123°48'0 0.0
2018-May-26 02:59N 46°12' W 123°48'0 0.0
2018-May-26 02:29N 46°12' W 123°48'0 0.0
2018-May-26 01:59N 46°12' W 123°48'0 0.0
2018-May-26 01:29N 46°12' W 123°48'0 0.0
2018-May-26 00:26N 46°12' W 123°48'0 0.0
2018-May-25 23:59N 46°12' W 123°48'0 0.0
2018-May-25 23:29N 46°12' W 123°48'0 0.0
2018-May-25 22:59N 46°12' W 123°48'0 0.0
2018-May-25 22:29N 46°12' W 123°48'0 0.0
2018-May-25 21:59N 46°12' W 123°48'0 0.0
2018-May-25 21:29N 46°12' W 123°48'0 0.0
2018-May-25 20:59N 46°12' W 123°48'0 0.0
2018-May-25 20:29N 46°12' W 123°48'0 0.0
2018-May-25 19:59N 46°12' W 123°48'0 0.0
2018-May-25 19:29N 46°12' W 123°48'0 0.0
2018-May-25 18:59N 46°12' W 123°48'0 0.0
2018-May-25 18:29N 46°12' W 123°48'0 0.0
2018-May-25 17:59N 46°12' W 123°48'0 0.0
2018-May-25 17:29N 46°12' W 123°48'0 0.0
2018-May-25 16:59N 46°12' W 123°48'0 0.0
2018-May-25 16:29N 46°12' W 123°48'0 0.0
2018-May-25 15:59N 46°12' W 123°48'0 0.0
2018-May-25 15:29N 46°12' W 123°48'0 0.0
2018-May-25 14:59N 46°12' W 123°48'0 0.0
2018-May-25 14:29N 46°12' W 123°48'0 0.0
2018-May-25 13:59N 46°12' W 123°48'0 0.0
2018-May-25 13:11N 46°12' W 123°48'0 0.0
2018-May-25 12:44N 46°12' W 123°48'0 0.0
2018-May-25 12:29N 46°12' W 123°48'0 0.0
2018-May-25 11:59N 46°12' W 123°48'0 0.0
2018-May-25 11:29N 46°12' W 123°48'0 0.0
2018-May-25 10:59N 46°12' W 123°48'0 0.0
2018-May-25 10:29N 46°12' W 123°48'0 0.0
2018-May-25 09:59N 46°12' W 123°48'0 0.0
2018-May-25 09:29N 46°12' W 123°48'0 0.0
2018-May-25 08:59N 46°12' W 123°48'0 0.0
2018-May-25 08:29N 46°12' W 123°48'0 0.0
2018-May-25 07:59N 46°12' W 123°48'0 0.0
2018-May-25 07:29N 46°12' W 123°48'0 0.0
2018-May-25 06:44N 46°12' W 123°48'0 0.0
2018-May-25 06:29N 46°12' W 123°48'0 0.0
2018-May-25 05:59N 46°12' W 123°48'0 0.0
2018-May-25 05:29N 46°12' W 123°48'0 0.0
2018-May-25 04:59N 46°12' W 123°48'0 0.0
2018-May-25 04:26N 46°12' W 123°48'0 0.0
2018-May-25 03:59N 46°12' W 123°48'0 0.0
2018-May-25 03:29N 46°12' W 123°48'0 0.0
2018-May-25 02:56N 46°12' W 123°48'0 0.0
2018-May-25 02:29N 46°12' W 123°48'0 0.0
2018-May-25 01:56N 46°12' W 123°48'0 0.0
2018-May-25 01:14N 46°12' W 123°48'0 0.0
2018-May-25 00:59N 46°12' W 123°48'0 0.0
2018-May-25 00:29N 46°12' W 123°48'0 0.0
2018-May-24 23:50N 46°12' W 123°48'0 0.0
2018-May-24 23:11N 46°12' W 123°48'0 0.0
2018-May-24 22:59N 46°12' W 123°48'0 0.0
2018-May-24 22:29N 46°12' W 123°48'0 0.0
2018-May-24 21:50N 46°12' W 123°48'0 0.0
2018-May-24 21:29N 46°12' W 123°48'0 0.0
2018-May-24 20:59N 46°12' W 123°48'0 0.0
2018-May-24 20:29N 46°12' W 123°48'0 0.0
2018-May-24 19:47N 46°12' W 123°48'0 0.0
2018-May-24 19:29N 46°12' W 123°48'0 0.0
2018-May-24 18:59N 46°12' W 123°48'0 0.0
2018-May-24 18:29N 46°12' W 123°48'0 0.0
2018-May-24 17:59N 46°12' W 123°48'0 0.0
2018-May-24 17:20N 46°12' W 123°48'0 0.0
2018-May-24 16:59N 46°12' W 123°48'0 0.0
2018-May-24 16:29N 46°12' W 123°48'0 0.0
2018-May-24 15:56N 46°12' W 123°48'0 0.0
2018-May-24 15:29N 46°12' W 123°48'0 0.0
2018-May-24 14:47N 46°12' W 123°48'0 0.0
2018-May-24 14:29N 46°12' W 123°48'0 0.0
2018-May-24 13:59N 46°12' W 123°48'0 0.0
2018-May-24 13:29N 46°12' W 123°48'0 0.0
2018-May-24 08:59N 46°12' W 123°48'0 0.0
2018-May-24 08:29N 46°12' W 123°48'0 0.0
2018-May-24 07:59N 46°12' W 123°48'0 0.0
2018-May-24 07:29N 46°12' W 123°48'0 0.0
2018-May-24 06:56N 46°12' W 123°48'0 0.0
2018-May-24 06:29N 46°12' W 123°48'0 0.0
2018-May-24 05:59N 46°12' W 123°48'0 0.0
2018-May-24 05:29N 46°12' W 123°48'0 0.0
2018-May-24 04:59N 46°12' W 123°48'0 0.0
2018-May-24 04:30N 46°12' W 123°48'0 0.0
2018-May-24 04:00N 46°12' W 123°48'0 0.0
2018-May-24 03:15N 46°12' W 123°48'0 0.0
2018-May-24 02:59N 46°12' W 123°48'0 0.0
2018-May-24 02:30N 46°12' W 123°48'0 0.0
2018-May-24 01:56N 46°12' W 123°48'0 0.0
2018-May-24 00:56N 46°12' W 123°48'0 0.0
2018-May-24 00:29N 46°12' W 123°48'0 0.0
2018-May-24 00:00N 46°12' W 123°48'0 0.0
2018-May-23 23:30N 46°12' W 123°48'0 0.0
2018-May-23 22:59N 46°12' W 123°48'0 0.0
2018-May-23 22:30N 46°12' W 123°48'0 0.0
2018-May-23 22:00N 46°12' W 123°48'0 0.0
2018-May-23 21:30N 46°12' W 123°48'0 0.0
2018-May-23 20:59N 46°12' W 123°48'0 0.0
2018-May-23 20:30N 46°12' W 123°48'0 0.0
2018-May-23 20:00N 46°12' W 123°48'0 0.0
2018-May-23 19:15N 46°12' W 123°48'0 0.0
2018-May-23 18:42N 46°12' W 123°48'0 0.0
2018-May-23 18:15N 46°12' W 123°48'0 0.0
2018-May-23 17:54N 46°12' W 123°48'0 0.0
2018-May-23 17:12N 46°12' W 123°48'0 0.0
2018-May-23 17:00N 46°12' W 123°48'0 0.0
2018-May-23 16:15N 46°12' W 123°48'0 0.0
2018-May-23 16:00N 46°12' W 123°48'0 0.0
2018-May-23 15:27N 46°12' W 123°48'0 0.0
2018-May-23 15:00N 46°12' W 123°48'0 0.0
2018-May-23 14:30N 46°12' W 123°48'0 0.0
2018-May-23 14:00N 46°12' W 123°48'0 0.0
2018-May-23 13:30N 46°12' W 123°48'0 0.0
2018-May-23 12:09N 46°12' W 123°48'0 0.0
2018-May-23 11:39N 46°12' W 123°48'0 0.0
2018-May-23 11:15N 46°12' W 123°48'0 0.0
2018-May-23 11:00N 46°12' W 123°48'0 0.0
2018-May-23 10:30N 46°12' W 123°48'0 0.0
2018-May-23 10:00N 46°12' W 123°48'0 0.0
2018-May-23 09:30N 46°12' W 123°48'0 0.0
2018-May-23 09:00N 46°12' W 123°48'0 0.0
2018-May-23 08:30N 46°12' W 123°48'0 0.0
2018-May-23 08:00N 46°12' W 123°48'0 0.0
2018-May-23 07:30N 46°12' W 123°48'0 0.0
2018-May-23 06:57N 46°12' W 123°48'0 0.0
2018-May-23 06:30N 46°12' W 123°48'0 0.0
2018-May-23 06:00N 46°12' W 123°48'0 0.0
2018-May-23 05:21N 46°12' W 123°48'0 0.0
2018-May-23 05:00N 46°12' W 123°48'0 0.0
2018-May-23 04:27N 46°12' W 123°48'0 0.0
2018-May-23 04:00N 46°12' W 123°48'0 0.0
2018-May-23 03:30N 46°12' W 123°48'0 0.0
2018-May-23 02:54N 46°12' W 123°48'0 0.0
2018-May-23 02:30N 46°12' W 123°48'0 0.0
2018-May-23 02:00N 46°12' W 123°48'0 0.0
2018-May-23 01:30N 46°12' W 123°48'0 0.0
2018-May-23 01:00N 46°12' W 123°48'0 0.0
2018-May-23 00:30N 46°12' W 123°48'0 0.0
2018-May-22 23:45N 46°12' W 123°48'0 0.0
2018-May-22 23:30N 46°12' W 123°48'0 0.0
2018-May-22 23:00N 46°12' W 123°48'0 0.0
2018-May-22 22:30N 46°12' W 123°48'0 0.0
2018-May-22 22:00N 46°12' W 123°48'0 0.0
2018-May-22 21:30N 46°12' W 123°48'0 0.0
2018-May-22 21:00N 46°12' W 123°48'0 0.0
2018-May-22 20:30N 46°12' W 123°48'0 0.0
2018-May-22 20:00N 46°12' W 123°48'0 0.0
2018-May-22 19:30N 46°12' W 123°48'0 0.0
2018-May-22 19:00N 46°12' W 123°48'0 0.0
2018-May-22 18:30N 46°12' W 123°48'0 0.0
2018-May-22 17:54N 46°12' W 123°48'0 0.0
2018-May-22 17:30N 46°12' W 123°48'0 0.0
2018-May-22 17:00N 46°12' W 123°48'0 0.0
2018-May-22 16:30N 46°12' W 123°48'0 0.0
2018-May-22 16:00N 46°12' W 123°48'0 0.0
2018-May-22 15:24N 46°12' W 123°48'0 0.0
2018-May-22 15:00N 46°12' W 123°48'0 0.0
2018-May-22 14:30N 46°12' W 123°48'0 0.0
2018-May-22 14:00N 46°12' W 123°48'0 0.0
2018-May-22 13:15N 46°12' W 123°48'0 0.0
2018-May-22 12:57N 46°12' W 123°48'0 0.0
2018-May-22 12:30N 46°12' W 123°48'0 0.0
2018-May-22 12:00N 46°12' W 123°48'0 0.0
2018-May-22 11:30N 46°12' W 123°48'0 0.0
2018-May-22 10:36N 46°12' W 123°48'0 0.0
2018-May-22 10:30N 46°12' W 123°48'0 0.0
2018-May-22 10:00N 46°12' W 123°48'0 0.0
2018-May-22 09:30N 46°12' W 123°48'0 0.0
2018-May-22 09:00N 46°12' W 123°48'0 0.0
2018-May-22 07:51N 46°12' W 123°48'0 0.0
2018-May-22 07:30N 46°12' W 123°48'0 0.0
2018-May-22 06:51N 46°12' W 123°48'0 0.0
2018-May-22 06:30N 46°12' W 123°48'0 0.0
2018-May-22 05:57N 46°12' W 123°48'0 0.0
2018-May-22 05:30N 46°12' W 123°48'0 0.0
2018-May-22 05:00N 46°12' W 123°48'0 0.0
2018-May-22 04:18N 46°12' W 123°48'0 0.0
2018-May-22 04:00N 46°12' W 123°48'0 0.0
2018-May-22 03:30N 46°12' W 123°48'0 0.0
2018-May-22 02:45N 46°12' W 123°48'0 0.0
2018-May-22 02:30N 46°12' W 123°48'0 0.0
2018-May-22 02:00N 46°12' W 123°48'0 0.0
2018-May-22 01:30N 46°12' W 123°48'0 0.0
2018-May-22 01:00N 46°12' W 123°48'0 0.0
2018-May-22 00:30N 46°12' W 123°48'0 0.0
2018-May-22 00:00N 46°12' W 123°48'0 0.0
2018-May-21 23:30N 46°12' W 123°48'0 0.0
2018-May-21 23:00N 46°12' W 123°48'0 0.0
2018-May-21 22:30N 46°12' W 123°48'0 0.0
2018-May-21 22:00N 46°12' W 123°48'0 0.0
2018-May-21 21:30N 46°12' W 123°48'0 0.0
2018-May-21 21:00N 46°12' W 123°48'0 0.0
2018-May-21 20:30N 46°12' W 123°48'0 0.0
2018-May-21 20:00N 46°12' W 123°48'0 0.0
2018-May-21 19:30N 46°12' W 123°48'0 0.0
2018-May-21 19:00N 46°12' W 123°48'0 0.0
2018-May-21 18:30N 46°12' W 123°48'0 0.0
2018-May-21 18:00N 46°12' W 123°48'0 0.0
2018-May-21 17:30N 46°12' W 123°48'0 0.0
2018-May-21 17:00N 46°12' W 123°48'0 0.0
2018-May-21 16:30N 46°12' W 123°48'0 0.0
2018-May-21 16:00N 46°12' W 123°48'0 0.0
2018-May-21 15:15N 46°12' W 123°48'0 0.0
2018-May-21 15:00N 46°12' W 123°48'0 0.0
2018-May-21 14:30N 46°12' W 123°48'0 0.0
2018-May-21 14:00N 46°12' W 123°48'0 0.0
2018-May-21 13:30N 46°12' W 123°48'0 0.0
2018-May-21 13:00N 46°12' W 123°48'0 0.0
2018-May-21 12:21N 46°12' W 123°48'0 0.0
2018-May-21 11:45N 46°12' W 123°48'0 0.0
2018-May-21 11:30N 46°12' W 123°48'0 0.0
2018-May-21 11:00N 46°12' W 123°48'0 0.0
2018-May-21 10:30N 46°12' W 123°48'0 0.0
2018-May-21 09:42N 46°12' W 123°48'0 0.0
2018-May-21 09:15N 46°12' W 123°48'0 0.0
2018-May-21 09:00N 46°12' W 123°48'0 0.0
2018-May-21 08:30N 46°12' W 123°48'0 0.0
2018-May-21 08:00N 46°12' W 123°48'0 0.0
2018-May-21 07:30N 46°12' W 123°48'0 0.0
2018-May-21 06:57N 46°12' W 123°48'0 0.0
2018-May-21 06:30N 46°12' W 123°48'0 0.0
2018-May-21 06:00N 46°12' W 123°48'0 0.0
2018-May-21 05:30N 46°12' W 123°48'0 0.0
2018-May-21 05:00N 46°12' W 123°48'0 0.0
2018-May-21 04:30N 46°12' W 123°48'0 0.0
2018-May-21 04:00N 46°12' W 123°48'0 0.0
2018-May-21 03:30N 46°12' W 123°48'0 0.0
2018-May-21 03:00N 46°12' W 123°48'0 0.0
2018-May-21 02:30N 46°12' W 123°48'0 0.0
2018-May-21 01:36N 46°12' W 123°48'0 0.0
2018-May-21 01:30N 46°12' W 123°48'0 0.0
2018-May-21 01:00N 46°12' W 123°48'0 0.0
2018-May-21 00:30N 46°12' W 123°48'0 0.0
2018-May-21 00:00N 46°12' W 123°48'0 0.0
2018-May-20 23:30N 46°12' W 123°48'0 0.0
2018-May-20 22:51N 46°12' W 123°48'0 0.0
2018-May-20 22:30N 46°12' W 123°48'0 0.0
2018-May-20 22:00N 46°12' W 123°48'0 0.0
2018-May-20 21:30N 46°12' W 123°48'0 0.0
2018-May-20 21:00N 46°12' W 123°48'0 0.0
2018-May-20 20:30N 46°12' W 123°48'0 0.0
2018-May-20 20:00N 46°12' W 123°48'0 0.0
2018-May-20 19:30N 46°12' W 123°48'0 0.0
2018-May-20 19:00N 46°12' W 123°48'0 0.0
2018-May-20 18:30N 46°12' W 123°48'0 0.0
2018-May-20 17:36N 46°12' W 123°48'0 0.0
2018-May-20 17:30N 46°12' W 123°48'0 0.0
2018-May-20 16:51N 46°12' W 123°48'0 0.0
2018-May-20 16:21N 46°12' W 123°48'0 0.0
2018-May-20 16:00N 46°12' W 123°48'0 0.0
2018-May-20 15:30N 46°12' W 123°48'0 0.0
2018-May-20 15:00N 46°12' W 123°48'0 0.0
2018-May-20 14:30N 46°12' W 123°48'0 0.0
2018-May-20 14:00N 46°12' W 123°48'0 0.0
2018-May-20 13:30N 46°12' W 123°48'0 0.0
2018-May-20 13:00N 46°12' W 123°48'0 0.0
2018-May-20 12:30N 46°12' W 123°48'0 0.0
2018-May-20 12:00N 46°12' W 123°48'0 0.0
2018-May-20 11:30N 46°12' W 123°48'0 0.0
2018-May-20 11:00N 46°12' W 123°48'0 0.0
2018-May-20 10:30N 46°12' W 123°48'0 0.0
2018-May-20 10:00N 46°12' W 123°48'0 0.0
2018-May-20 06:57N 46°12' W 123°48'0 0.0
2018-May-20 06:30N 46°12' W 123°48'0 0.0
2018-May-20 06:00N 46°12' W 123°48'0 0.0
2018-May-20 05:09N 46°12' W 123°48'0 0.0
2018-May-20 05:00N 46°12' W 123°48'0 0.0
2018-May-20 04:30N 46°12' W 123°48'0 0.0
2018-May-20 03:45N 46°12' W 123°48'0 0.0
2018-May-20 03:30N 46°12' W 123°48'0 0.0
2018-May-20 03:00N 46°12' W 123°48'0 0.0
2018-May-20 02:30N 46°12' W 123°48'0 0.0
2018-May-20 02:00N 46°12' W 123°48'0 0.0
2018-May-20 01:30N 46°12' W 123°48'0 0.0
2018-May-20 01:00N 46°12' W 123°48'0 0.0
2018-May-20 00:30N 46°12' W 123°48'0 0.0
2018-May-20 00:00N 46°12' W 123°48'0 0.0
2018-May-19 23:30N 46°12' W 123°48'0 0.0
2018-May-19 23:00N 46°12' W 123°48'0 0.0
2018-May-19 22:30N 46°12' W 123°48'0 0.0
2018-May-19 22:00N 46°12' W 123°48'0 0.0
2018-May-19 21:30N 46°12' W 123°48'0 0.0
2018-May-19 21:00N 46°12' W 123°48'0 0.0
2018-May-19 20:30N 46°12' W 123°48'0 0.0
2018-May-19 20:00N 46°12' W 123°48'0 0.0
2018-May-19 19:30N 46°12' W 123°48'0 0.0
2018-May-19 18:48N 46°12' W 123°48'0 0.0
2018-May-19 18:30N 46°12' W 123°48'0 0.0
2018-May-19 18:00N 46°12' W 123°48'0 0.0
2018-May-19 17:30N 46°12' W 123°48'0 0.0
2018-May-19 17:00N 46°12' W 123°48'0 0.0
2018-May-19 16:30N 46°12' W 123°48'0 0.0
2018-May-19 15:57N 46°12' W 123°48'0 0.0
2018-May-19 15:24N 46°12' W 123°48'0 0.0
2018-May-19 15:00N 46°12' W 123°48'0 0.0
2018-May-19 14:30N 46°12' W 123°48'0 0.0
2018-May-19 14:01N 46°12' W 123°48'0 0.0
2018-May-19 13:31N 46°12' W 123°48'0 0.0
2018-May-19 12:57N 46°12' W 123°48'0 0.0
2018-May-19 12:30N 46°12' W 123°48'0 0.0
2018-May-19 12:01N 46°12' W 123°48'0 0.0
2018-May-19 11:31N 46°12' W 123°48'0 0.0
2018-May-19 10:57N 46°12' W 123°48'0 0.0
2018-May-19 10:30N 46°12' W 123°48'0 0.0
2018-May-19 10:01N 46°12' W 123°48'0 0.0
2018-May-19 09:30N 46°12' W 123°48'0 0.0
2018-May-19 09:01N 46°12' W 123°48'0 0.0
2018-May-19 08:30N 46°12' W 123°48'0 0.0
2018-May-19 08:00N 46°12' W 123°48'0 0.0
2018-May-19 07:31N 46°12' W 123°48'0 0.0
2018-May-19 06:49N 46°12' W 123°48'0 0.0
2018-May-19 06:31N 46°12' W 123°48'0 0.0
2018-May-19 06:01N 46°12' W 123°48'0 0.0
2018-May-19 05:31N 46°12' W 123°48'0 0.0
2018-May-19 05:01N 46°12' W 123°48'0 0.0
2018-May-19 04:31N 46°12' W 123°48'0 0.0
2018-May-19 03:43N 46°12' W 123°48'0 0.0
2018-May-19 03:31N 46°12' W 123°48'0 0.0
2018-May-19 03:01N 46°12' W 123°48'0 0.0
2018-May-19 02:31N 46°12' W 123°48'0 0.0
2018-May-19 01:52N 46°12' W 123°48'0 0.0
2018-May-19 01:10N 46°12' W 123°48'0 0.0
2018-May-19 00:58N 46°12' W 123°48'7 0.3
2018-May-17 20:12N 46°14' W 123°58'2 9.8
2018-May-17 20:00N 46°15' W 124°01'4 8.5
2018-May-17 19:30N 46°14' W 124°06'3 6.6
2018-May-17 19:00N 46°13' W 124°11'3 5.7
2018-May-17 18:30N 46°13' W 124°15'3 5.0
2018-May-17 18:00N 46°13' W 124°19'4 7.1
2018-May-17 17:30N 46°12' W 124°24'3 6.7
2018-May-17 16:59N 46°12' W 124°29'3 6.3
2018-May-17 16:30N 46°11' W 124°33'3 6.6
2018-May-17 15:59N 46°10' W 124°38'3 6.4
2018-May-17 15:30N 46°09' W 124°42'0 0.5
2018-May-17 15:00N 46°09' W 124°42'1 1.9
2018-May-17 14:30N 46°08' W 124°43'1 2.1
2018-May-17 13:55N 46°07' W 124°44'1 2.3
2018-May-17 13:27N 46°06' W 124°45'1 2.3
2018-May-17 13:00N 46°05' W 124°46'1 2.3
2018-May-17 12:28N 46°05' W 124°47'1 2.7
2018-May-17 11:59N 46°04' W 124°49'1 1.0
2018-May-17 11:22N 46°04' W 124°50'0 0.3
2018-May-17 10:58N 46°04' W 124°50'0 0.4
2018-May-17 10:25N 46°04' W 124°50'0 0.6
2018-May-17 09:51N 46°05' W 124°50'1 3.7
2018-May-17 09:30N 46°04' W 124°49'1 1.7
2018-May-17 09:00N 46°03' W 124°48'0 0.7
2018-May-17 08:18N 46°04' W 124°48'0 0.8
2018-May-17 08:00N 46°04' W 124°49'0 0.7
2018-May-17 07:21N 46°04' W 124°49'0 0.6
2018-May-17 07:00N 46°04' W 124°49'0 0.7
2018-May-17 06:30N 46°05' W 124°50'0 0.6
2018-May-17 05:57N 46°05' W 124°50'1 0.9
2018-May-17 05:20N 46°05' W 124°51'1 1.7
2018-May-17 05:00N 46°05' W 124°50'0 0.6
2018-May-17 04:29N 46°04' W 124°50'1 1.6
2018-May-17 04:00N 46°04' W 124°50'2 3.5
2018-May-17 03:31N 46°02' W 124°49'2 3.5
2018-May-17 03:01N 46°00' W 124°48'3 3.8
2018-May-17 02:16N 45°58' W 124°46'1 5.4
2018-May-17 02:00N 45°57' W 124°45'1 0.8
2018-May-17 01:16N 45°56' W 124°44'1 2.3
2018-May-17 00:57N 45°57' W 124°44'2 2.3
2018-May-16 23:57N 45°59' W 124°45'1 2.2
2018-May-16 23:30N 45°60' W 124°46'1 2.2
2018-May-16 23:00N 46°01' W 124°48'1 2.3
2018-May-16 22:30N 46°01' W 124°49'1 1.2
2018-May-16 22:00N 46°02' W 124°50'1 2.3
2018-May-16 21:30N 46°03' W 124°50'1 2.4
2018-May-16 21:00N 46°04' W 124°50'1 2.8
2018-May-16 20:30N 46°05' W 124°50'10 7.0
2018-May-16 19:07N 46°14' W 124°43'1 7.2
2018-May-16 19:00N 46°15' W 124°43'4 7.8
2018-May-16 18:28N 46°18' W 124°40'1 3.1
2018-May-16 18:00N 46°19' W 124°39'1 1.1
2018-May-16 17:30N 46°19' W 124°39'1 2.3
2018-May-16 17:01N 46°18' W 124°40'1 2.4
2018-May-16 16:30N 46°17' W 124°38'1 2.8
2018-May-16 16:00N 46°16' W 124°38'2 4.7
2018-May-16 15:30N 46°18' W 124°39'4 7.4
2018-May-16 15:00N 46°21' W 124°42'4 7.4
2018-May-16 14:30N 46°24' W 124°44'4 7.3
2018-May-16 14:00N 46°28' W 124°46'  
Track history (hours):
 
Tides and Currents Weather Stations Pressure Air Temp Water Temp Dewpoint Dewpoint Depression Visibility Wind Speed Wind Dir Waves Ship Positions

Ocean Beaut

Owner: John Moreland Fishing Inc., Astoria, OR. More information available from US FCC via Universal Licensing System.

Last reported at 2018-May-26 14:00 UTC. Time now 2018-May-26 14:09 UTC.
Position N 45°60' W 124°47'.

Length 20 m.

Type: Fishing. MMSI: 367187080.

Date/timePositionNaut miles runAvg speedWind from/ knotsBaromVisibWave heightAir tempDewpointWater temp
2018-May-26 14:00N 45°60' W 124°47'6 2.1
2018-May-26 11:04N 46°06' W 124°45'4 4.2
2018-May-26 10:14N 46°09' W 124°42'2 8.0
2018-May-26 10:00N 46°09' W 124°39'4 8.0
2018-May-26 09:30N 46°09' W 124°33'4 7.5
2018-May-26 09:00N 46°10' W 124°28'4 7.4
2018-May-26 08:30N 46°11' W 124°23'4 8.1
2018-May-26 08:00N 46°12' W 124°17'4 8.8
2018-May-26 07:30N 46°13' W 124°11'5 9.4
2018-May-26 06:58N 46°15' W 124°05'4 8.2
2018-May-26 06:30N 46°14' W 123°59'6 6.1
2018-May-26 05:30N 46°11' W 123°51'0 0.0
2018-May-26 05:00N 46°11' W 123°51'0 0.0
2018-May-26 04:30N 46°11' W 123°51'2 3.1
2018-May-26 04:01N 46°12' W 123°49'1 1.7
2018-May-26 03:29N 46°12' W 123°48'0 0.0
2018-May-26 02:59N 46°12' W 123°48'0 0.0
2018-May-26 02:29N 46°12' W 123°48'0 0.0
2018-May-26 01:59N 46°12' W 123°48'0 0.0
2018-May-26 01:29N 46°12' W 123°48'0 0.0
2018-May-26 00:26N 46°12' W 123°48'0 0.0
2018-May-25 23:59N 46°12' W 123°48'0 0.0
2018-May-25 23:29N 46°12' W 123°48'0 0.0
2018-May-25 22:59N 46°12' W 123°48'0 0.0
2018-May-25 22:29N 46°12' W 123°48'0 0.0
2018-May-25 21:59N 46°12' W 123°48'0 0.0
2018-May-25 21:29N 46°12' W 123°48'0 0.0
2018-May-25 20:59N 46°12' W 123°48'0 0.0
2018-May-25 20:29N 46°12' W 123°48'0 0.0
2018-May-25 19:59N 46°12' W 123°48'0 0.0
2018-May-25 19:29N 46°12' W 123°48'0 0.0
2018-May-25 18:59N 46°12' W 123°48'0 0.0
2018-May-25 18:29N 46°12' W 123°48'0 0.0
2018-May-25 17:59N 46°12' W 123°48'0 0.0
2018-May-25 17:29N 46°12' W 123°48'0 0.0
2018-May-25 16:59N 46°12' W 123°48'0 0.0
2018-May-25 16:29N 46°12' W 123°48'0 0.0
2018-May-25 15:59N 46°12' W 123°48'0 0.0
2018-May-25 15:29N 46°12' W 123°48'0 0.0
2018-May-25 14:59N 46°12' W 123°48'0 0.0
2018-May-25 14:29N 46°12' W 123°48'0 0.0
2018-May-25 13:59N 46°12' W 123°48'0 0.0
2018-May-25 13:11N 46°12' W 123°48'0 0.0
2018-May-25 12:44N 46°12' W 123°48'0 0.0
2018-May-25 12:29N 46°12' W 123°48'0 0.0
2018-May-25 11:59N 46°12' W 123°48'0 0.0
2018-May-25 11:29N 46°12' W 123°48'0 0.0
2018-May-25 10:59N 46°12' W 123°48'0 0.0
2018-May-25 10:29N 46°12' W 123°48'0 0.0
2018-May-25 09:59N 46°12' W 123°48'0 0.0
2018-May-25 09:29N 46°12' W 123°48'0 0.0
2018-May-25 08:59N 46°12' W 123°48'0 0.0
2018-May-25 08:29N 46°12' W 123°48'0 0.0
2018-May-25 07:59N 46°12' W 123°48'0 0.0
2018-May-25 07:29N 46°12' W 123°48'0 0.0
2018-May-25 06:44N 46°12' W 123°48'0 0.0
2018-May-25 06:29N 46°12' W 123°48'0 0.0
2018-May-25 05:59N 46°12' W 123°48'0 0.0
2018-May-25 05:29N 46°12' W 123°48'0 0.0
2018-May-25 04:59N 46°12' W 123°48'0 0.0
2018-May-25 04:26N 46°12' W 123°48'0 0.0
2018-May-25 03:59N 46°12' W 123°48'0 0.0
2018-May-25 03:29N 46°12' W 123°48'0 0.0
2018-May-25 02:56N 46°12' W 123°48'0 0.0
2018-May-25 02:29N 46°12' W 123°48'0 0.0
2018-May-25 01:56N 46°12' W 123°48'0 0.0
2018-May-25 01:14N 46°12' W 123°48'0 0.0
2018-May-25 00:59N 46°12' W 123°48'0 0.0
2018-May-25 00:29N 46°12' W 123°48'0 0.0
2018-May-24 23:50N 46°12' W 123°48'0 0.0
2018-May-24 23:11N 46°12' W 123°48'0 0.0
2018-May-24 22:59N 46°12' W 123°48'0 0.0
2018-May-24 22:29N 46°12' W 123°48'0 0.0
2018-May-24 21:50N 46°12' W 123°48'0 0.0
2018-May-24 21:29N 46°12' W 123°48'0 0.0
2018-May-24 20:59N 46°12' W 123°48'0 0.0
2018-May-24 20:29N 46°12' W 123°48'0 0.0
2018-May-24 19:47N 46°12' W 123°48'0 0.0
2018-May-24 19:29N 46°12' W 123°48'0 0.0
2018-May-24 18:59N 46°12' W 123°48'0 0.0
2018-May-24 18:29N 46°12' W 123°48'0 0.0
2018-May-24 17:59N 46°12' W 123°48'0 0.0
2018-May-24 17:20N 46°12' W 123°48'0 0.0
2018-May-24 16:59N 46°12' W 123°48'0 0.0
2018-May-24 16:29N 46°12' W 123°48'0 0.0
2018-May-24 15:56N 46°12' W 123°48'0 0.0
2018-May-24 15:29N 46°12' W 123°48'0 0.0
2018-May-24 14:47N 46°12' W 123°48'0 0.0
2018-May-24 14:29N 46°12' W 123°48'0 0.0
2018-May-24 13:59N 46°12' W 123°48'0 0.0
2018-May-24 13:29N 46°12' W 123°48'0 0.0
2018-May-24 08:59N 46°12' W 123°48'0 0.0
2018-May-24 08:29N 46°12' W 123°48'0 0.0
2018-May-24 07:59N 46°12' W 123°48'0 0.0
2018-May-24 07:29N 46°12' W 123°48'0 0.0
2018-May-24 06:56N 46°12' W 123°48'0 0.0
2018-May-24 06:29N 46°12' W 123°48'0 0.0
2018-May-24 05:59N 46°12' W 123°48'0 0.0
2018-May-24 05:29N 46°12' W 123°48'0 0.0
2018-May-24 04:59N 46°12' W 123°48'0 0.0
2018-May-24 04:30N 46°12' W 123°48'0 0.0
2018-May-24 04:00N 46°12' W 123°48'0 0.0
2018-May-24 03:15N 46°12' W 123°48'0 0.0
2018-May-24 02:59N 46°12' W 123°48'0 0.0
2018-May-24 02:30N 46°12' W 123°48'0 0.0
2018-May-24 01:56N 46°12' W 123°48'0 0.0
2018-May-24 00:56N 46°12' W 123°48'0 0.0
2018-May-24 00:29N 46°12' W 123°48'0 0.0
2018-May-24 00:00N 46°12' W 123°48'0 0.0
2018-May-23 23:30N 46°12' W 123°48'0 0.0
2018-May-23 22:59N 46°12' W 123°48'0 0.0
2018-May-23 22:30N 46°12' W 123°48'0 0.0
2018-May-23 22:00N 46°12' W 123°48'0 0.0
2018-May-23 21:30N 46°12' W 123°48'0 0.0
2018-May-23 20:59N 46°12' W 123°48'0 0.0
2018-May-23 20:30N 46°12' W 123°48'0 0.0
2018-May-23 20:00N 46°12' W 123°48'0 0.0
2018-May-23 19:15N 46°12' W 123°48'0 0.0
2018-May-23 18:42N 46°12' W 123°48'0 0.0
2018-May-23 18:15N 46°12' W 123°48'0 0.0
2018-May-23 17:54N 46°12' W 123°48'0 0.0
2018-May-23 17:12N 46°12' W 123°48'0 0.0
2018-May-23 17:00N 46°12' W 123°48'0 0.0
2018-May-23 16:15N 46°12' W 123°48'0 0.0
2018-May-23 16:00N 46°12' W 123°48'0 0.0
2018-May-23 15:27N 46°12' W 123°48'0 0.0
2018-May-23 15:00N 46°12' W 123°48'0 0.0
2018-May-23 14:30N 46°12' W 123°48'0 0.0
2018-May-23 14:00N 46°12' W 123°48'0 0.0
2018-May-23 13:30N 46°12' W 123°48'0 0.0
2018-May-23 12:09N 46°12' W 123°48'0 0.0
2018-May-23 11:39N 46°12' W 123°48'0 0.0
2018-May-23 11:15N 46°12' W 123°48'0 0.0
2018-May-23 11:00N 46°12' W 123°48'0 0.0
2018-May-23 10:30N 46°12' W 123°48'0 0.0
2018-May-23 10:00N 46°12' W 123°48'0 0.0
2018-May-23 09:30N 46°12' W 123°48'0 0.0
2018-May-23 09:00N 46°12' W 123°48'0 0.0
2018-May-23 08:30N 46°12' W 123°48'0 0.0
2018-May-23 08:00N 46°12' W 123°48'0 0.0
2018-May-23 07:30N 46°12' W 123°48'0 0.0
2018-May-23 06:57N 46°12' W 123°48'0 0.0
2018-May-23 06:30N 46°12' W 123°48'0 0.0
2018-May-23 06:00N 46°12' W 123°48'0 0.0
2018-May-23 05:21N 46°12' W 123°48'0 0.0
2018-May-23 05:00N 46°12' W 123°48'0 0.0
2018-May-23 04:27N 46°12' W 123°48'0 0.0
2018-May-23 04:00N 46°12' W 123°48'0 0.0
2018-May-23 03:30N 46°12' W 123°48'0 0.0
2018-May-23 02:54N 46°12' W 123°48'0 0.0
2018-May-23 02:30N 46°12' W 123°48'0 0.0
2018-May-23 02:00N 46°12' W 123°48'0 0.0
2018-May-23 01:30N 46°12' W 123°48'0 0.0
2018-May-23 01:00N 46°12' W 123°48'0 0.0
2018-May-23 00:30N 46°12' W 123°48'0 0.0
2018-May-22 23:45N 46°12' W 123°48'0 0.0
2018-May-22 23:30N 46°12' W 123°48'0 0.0
2018-May-22 23:00N 46°12' W 123°48'0 0.0
2018-May-22 22:30N 46°12' W 123°48'0 0.0
2018-May-22 22:00N 46°12' W 123°48'0 0.0
2018-May-22 21:30N 46°12' W 123°48'0 0.0
2018-May-22 21:00N 46°12' W 123°48'0 0.0
2018-May-22 20:30N 46°12' W 123°48'0 0.0
2018-May-22 20:00N 46°12' W 123°48'0 0.0
2018-May-22 19:30N 46°12' W 123°48'0 0.0
2018-May-22 19:00N 46°12' W 123°48'0 0.0
2018-May-22 18:30N 46°12' W 123°48'0 0.0
2018-May-22 17:54N 46°12' W 123°48'0 0.0
2018-May-22 17:30N 46°12' W 123°48'0 0.0
2018-May-22 17:00N 46°12' W 123°48'0 0.0
2018-May-22 16:30N 46°12' W 123°48'0 0.0
2018-May-22 16:00N 46°12' W 123°48'0 0.0
2018-May-22 15:24N 46°12' W 123°48'0 0.0
2018-May-22 15:00N 46°12' W 123°48'0 0.0
2018-May-22 14:30N 46°12' W 123°48'0 0.0
2018-May-22 14:00N 46°12' W 123°48'0 0.0
2018-May-22 13:15N 46°12' W 123°48'0 0.0
2018-May-22 12:57N 46°12' W 123°48'0 0.0
2018-May-22 12:30N 46°12' W 123°48'0 0.0
2018-May-22 12:00N 46°12' W 123°48'0 0.0
2018-May-22 11:30N 46°12' W 123°48'0 0.0
2018-May-22 10:36N 46°12' W 123°48'0 0.0
2018-May-22 10:30N 46°12' W 123°48'0 0.0
2018-May-22 10:00N 46°12' W 123°48'0 0.0
2018-May-22 09:30N 46°12' W 123°48'0 0.0
2018-May-22 09:00N 46°12' W 123°48'0 0.0
2018-May-22 07:51N 46°12' W 123°48'0 0.0
2018-May-22 07:30N 46°12' W 123°48'0 0.0
2018-May-22 06:51N 46°12' W 123°48'0 0.0
2018-May-22 06:30N 46°12' W 123°48'0 0.0
2018-May-22 05:57N 46°12' W 123°48'0 0.0
2018-May-22 05:30N 46°12' W 123°48'0 0.0
2018-May-22 05:00N 46°12' W 123°48'0 0.0
2018-May-22 04:18N 46°12' W 123°48'0 0.0
2018-May-22 04:00N 46°12' W 123°48'0 0.0
2018-May-22 03:30N 46°12' W 123°48'0 0.0
2018-May-22 02:45N 46°12' W 123°48'0 0.0
2018-May-22 02:30N 46°12' W 123°48'0 0.0
2018-May-22 02:00N 46°12' W 123°48'0 0.0
2018-May-22 01:30N 46°12' W 123°48'0 0.0
2018-May-22 01:00N 46°12' W 123°48'0 0.0
2018-May-22 00:30N 46°12' W 123°48'0 0.0
2018-May-22 00:00N 46°12' W 123°48'0 0.0
2018-May-21 23:30N 46°12' W 123°48'0 0.0
2018-May-21 23:00N 46°12' W 123°48'0 0.0
2018-May-21 22:30N 46°12' W 123°48'0 0.0
2018-May-21 22:00N 46°12' W 123°48'0 0.0
2018-May-21 21:30N 46°12' W 123°48'0 0.0
2018-May-21 21:00N 46°12' W 123°48'0 0.0
2018-May-21 20:30N 46°12' W 123°48'0 0.0
2018-May-21 20:00N 46°12' W 123°48'0 0.0
2018-May-21 19:30N 46°12' W 123°48'0 0.0
2018-May-21 19:00N 46°12' W 123°48'0 0.0
2018-May-21 18:30N 46°12' W 123°48'0 0.0
2018-May-21 18:00N 46°12' W 123°48'0 0.0
2018-May-21 17:30N 46°12' W 123°48'0 0.0
2018-May-21 17:00N 46°12' W 123°48'0 0.0
2018-May-21 16:30N 46°12' W 123°48'0 0.0
2018-May-21 16:00N 46°12' W 123°48'0 0.0
2018-May-21 15:15N 46°12' W 123°48'0 0.0
2018-May-21 15:00N 46°12' W 123°48'0 0.0
2018-May-21 14:30N 46°12' W 123°48'0 0.0
2018-May-21 14:00N 46°12' W 123°48'0 0.0
2018-May-21 13:30N 46°12' W 123°48'0 0.0
2018-May-21 13:00N 46°12' W 123°48'0 0.0
2018-May-21 12:21N 46°12' W 123°48'0 0.0
2018-May-21 11:45N 46°12' W 123°48'0 0.0
2018-May-21 11:30N 46°12' W 123°48'0 0.0
2018-May-21 11:00N 46°12' W 123°48'0 0.0
2018-May-21 10:30N 46°12' W 123°48'0 0.0
2018-May-21 09:42N 46°12' W 123°48'0 0.0
2018-May-21 09:15N 46°12' W 123°48'0 0.0
2018-May-21 09:00N 46°12' W 123°48'0 0.0
2018-May-21 08:30N 46°12' W 123°48'0 0.0
2018-May-21 08:00N 46°12' W 123°48'0 0.0
2018-May-21 07:30N 46°12' W 123°48'0 0.0
2018-May-21 06:57N 46°12' W 123°48'0 0.0
2018-May-21 06:30N 46°12' W 123°48'0 0.0
2018-May-21 06:00N 46°12' W 123°48'0 0.0
2018-May-21 05:30N 46°12' W 123°48'0 0.0
2018-May-21 05:00N 46°12' W 123°48'0 0.0
2018-May-21 04:30N 46°12' W 123°48'0 0.0
2018-May-21 04:00N 46°12' W 123°48'0 0.0
2018-May-21 03:30N 46°12' W 123°48'0 0.0
2018-May-21 03:00N 46°12' W 123°48'0 0.0
2018-May-21 02:30N 46°12' W 123°48'0 0.0
2018-May-21 01:36N 46°12' W 123°48'0 0.0
2018-May-21 01:30N 46°12' W 123°48'0 0.0
2018-May-21 01:00N 46°12' W 123°48'0 0.0
2018-May-21 00:30N 46°12' W 123°48'0 0.0
2018-May-21 00:00N 46°12' W 123°48'0 0.0
2018-May-20 23:30N 46°12' W 123°48'0 0.0
2018-May-20 22:51N 46°12' W 123°48'0 0.0
2018-May-20 22:30N 46°12' W 123°48'0 0.0
2018-May-20 22:00N 46°12' W 123°48'0 0.0
2018-May-20 21:30N 46°12' W 123°48'0 0.0
2018-May-20 21:00N 46°12' W 123°48'0 0.0
2018-May-20 20:30N 46°12' W 123°48'0 0.0
2018-May-20 20:00N 46°12' W 123°48'0 0.0
2018-May-20 19:30N 46°12' W 123°48'0 0.0
2018-May-20 19:00N 46°12' W 123°48'0 0.0
2018-May-20 18:30N 46°12' W 123°48'0 0.0
2018-May-20 17:36N 46°12' W 123°48'0 0.0
2018-May-20 17:30N 46°12' W 123°48'0 0.0
2018-May-20 16:51N 46°12' W 123°48'0 0.0
2018-May-20 16:21N 46°12' W 123°48'0 0.0
2018-May-20 16:00N 46°12' W 123°48'0 0.0
2018-May-20 15:30N 46°12' W 123°48'0 0.0
2018-May-20 15:00N 46°12' W 123°48'0 0.0
2018-May-20 14:30N 46°12' W 123°48'0 0.0
2018-May-20 14:00N 46°12' W 123°48'0 0.0
2018-May-20 13:30N 46°12' W 123°48'0 0.0
2018-May-20 13:00N 46°12' W 123°48'0 0.0
2018-May-20 12:30N 46°12' W 123°48'0 0.0
2018-May-20 12:00N 46°12' W 123°48'0 0.0
2018-May-20 11:30N 46°12' W 123°48'0 0.0
2018-May-20 11:00N 46°12' W 123°48'0 0.0
2018-May-20 10:30N 46°12' W 123°48'0 0.0
2018-May-20 10:00N 46°12' W 123°48'0 0.0
2018-May-20 06:57N 46°12' W 123°48'0 0.0
2018-May-20 06:30N 46°12' W 123°48'0 0.0
2018-May-20 06:00N 46°12' W 123°48'0 0.0
2018-May-20 05:09N 46°12' W 123°48'0 0.0
2018-May-20 05:00N 46°12' W 123°48'0 0.0
2018-May-20 04:30N 46°12' W 123°48'0 0.0
2018-May-20 03:45N 46°12' W 123°48'0 0.0
2018-May-20 03:30N 46°12' W 123°48'0 0.0
2018-May-20 03:00N 46°12' W 123°48'0 0.0
2018-May-20 02:30N 46°12' W 123°48'0 0.0
2018-May-20 02:00N 46°12' W 123°48'0 0.0
2018-May-20 01:30N 46°12' W 123°48'0 0.0
2018-May-20 01:00N 46°12' W 123°48'0 0.0
2018-May-20 00:30N 46°12' W 123°48'0 0.0
2018-May-20 00:00N 46°12' W 123°48'0 0.0
2018-May-19 23:30N 46°12' W 123°48'0 0.0
2018-May-19 23:00N 46°12' W 123°48'0 0.0
2018-May-19 22:30N 46°12' W 123°48'0 0.0
2018-May-19 22:00N 46°12' W 123°48'0 0.0
2018-May-19 21:30N 46°12' W 123°48'0 0.0
2018-May-19 21:00N 46°12' W 123°48'0 0.0
2018-May-19 20:30N 46°12' W 123°48'0 0.0
2018-May-19 20:00N 46°12' W 123°48'0 0.0
2018-May-19 19:30N 46°12' W 123°48'0 0.0
2018-May-19 18:48N 46°12' W 123°48'0 0.0
2018-May-19 18:30N 46°12' W 123°48'0 0.0
2018-May-19 18:00N 46°12' W 123°48'0 0.0
2018-May-19 17:30N 46°12' W 123°48'0 0.0
2018-May-19 17:00N 46°12' W 123°48'0 0.0
2018-May-19 16:30N 46°12' W 123°48'0 0.0
2018-May-19 15:57N 46°12' W 123°48'0 0.0
2018-May-19 15:24N 46°12' W 123°48'0 0.0
2018-May-19 15:00N 46°12' W 123°48'0 0.0
2018-May-19 14:30N 46°12' W 123°48'0 0.0
2018-May-19 14:01N 46°12' W 123°48'0 0.0
2018-May-19 13:31N 46°12' W 123°48'0 0.0
2018-May-19 12:57N 46°12' W 123°48'0 0.0
2018-May-19 12:30N 46°12' W 123°48'0 0.0
2018-May-19 12:01N 46°12' W 123°48'0 0.0
2018-May-19 11:31N 46°12' W 123°48'0 0.0
2018-May-19 10:57N 46°12' W 123°48'0 0.0
2018-May-19 10:30N 46°12' W 123°48'0 0.0
2018-May-19 10:01N 46°12' W 123°48'0 0.0
2018-May-19 09:30N 46°12' W 123°48'0 0.0
2018-May-19 09:01N 46°12' W 123°48'0 0.0
2018-May-19 08:30N 46°12' W 123°48'0 0.0
2018-May-19 08:00N 46°12' W 123°48'0 0.0
2018-May-19 07:31N 46°12' W 123°48'0 0.0
2018-May-19 06:49N 46°12' W 123°48'0 0.0
2018-May-19 06:31N 46°12' W 123°48'0 0.0
2018-May-19 06:01N 46°12' W 123°48'0 0.0
2018-May-19 05:31N 46°12' W 123°48'0 0.0
2018-May-19 05:01N 46°12' W 123°48'0 0.0
2018-May-19 04:31N 46°12' W 123°48'0 0.0
2018-May-19 03:43N 46°12' W 123°48'0 0.0
2018-May-19 03:31N 46°12' W 123°48'0 0.0
2018-May-19 03:01N 46°12' W 123°48'0 0.0
2018-May-19 02:31N 46°12' W 123°48'0 0.0
2018-May-19 01:52N 46°12' W 123°48'0 0.0
2018-May-19 01:10N 46°12' W 123°48'0 0.0
2018-May-19 00:58N 46°12' W 123°48'7 0.3
2018-May-17 20:12N 46°14' W 123°58'2 9.8
2018-May-17 20:00N 46°15' W 124°01'4 8.5
2018-May-17 19:30N 46°14' W 124°06'3 6.6
2018-May-17 19:00N 46°13' W 124°11'3 5.7
2018-May-17 18:30N 46°13' W 124°15'3 5.0
2018-May-17 18:00N 46°13' W 124°19'4 7.1
2018-May-17 17:30N 46°12' W 124°24'3 6.7
2018-May-17 16:59N 46°12' W 124°29'3 6.3
2018-May-17 16:30N 46°11' W 124°33'3 6.6
2018-May-17 15:59N 46°10' W 124°38'3 6.4
2018-May-17 15:30N 46°09' W 124°42'0 0.5
2018-May-17 15:00N 46°09' W 124°42'1 1.9
2018-May-17 14:30N 46°08' W 124°43'1 2.1
2018-May-17 13:55N 46°07' W 124°44'1 2.3
2018-May-17 13:27N 46°06' W 124°45'1 2.3
2018-May-17 13:00N 46°05' W 124°46'1 2.3
2018-May-17 12:28N 46°05' W 124°47'1 2.7
2018-May-17 11:59N 46°04' W 124°49'1 1.0
2018-May-17 11:22N 46°04' W 124°50'0 0.3
2018-May-17 10:58N 46°04' W 124°50'0 0.4
2018-May-17 10:25N 46°04' W 124°50'0 0.6
2018-May-17 09:51N 46°05' W 124°50'1 3.7
2018-May-17 09:30N 46°04' W 124°49'1 1.7
2018-May-17 09:00N 46°03' W 124°48'0 0.7
2018-May-17 08:18N 46°04' W 124°48'0 0.8
2018-May-17 08:00N 46°04' W 124°49'0 0.7
2018-May-17 07:21N 46°04' W 124°49'0 0.6
2018-May-17 07:00N 46°04' W 124°49'0 0.7
2018-May-17 06:30N 46°05' W 124°50'0 0.6
2018-May-17 05:57N 46°05' W 124°50'1 0.9
2018-May-17 05:20N 46°05' W 124°51'1 1.7
2018-May-17 05:00N 46°05' W 124°50'0 0.6
2018-May-17 04:29N 46°04' W 124°50'1 1.6
2018-May-17 04:00N 46°04' W 124°50'2 3.5
2018-May-17 03:31N 46°02' W 124°49'2 3.5
2018-May-17 03:01N 46°00' W 124°48'3 3.8
2018-May-17 02:16N 45°58' W 124°46'1 5.4
2018-May-17 02:00N 45°57' W 124°45'1 0.8
2018-May-17 01:16N 45°56' W 124°44'1 2.3
2018-May-17 00:57N 45°57' W 124°44'2 2.3
2018-May-16 23:57N 45°59' W 124°45'1 2.2
2018-May-16 23:30N 45°60' W 124°46'1 2.2
2018-May-16 23:00N 46°01' W 124°48'1 2.3
2018-May-16 22:30N 46°01' W 124°49'1 1.2
2018-May-16 22:00N 46°02' W 124°50'1 2.3
2018-May-16 21:30N 46°03' W 124°50'1 2.4
2018-May-16 21:00N 46°04' W 124°50'1 2.8
2018-May-16 20:30N 46°05' W 124°50'10 7.0
2018-May-16 19:07N 46°14' W 124°43'1 7.2
2018-May-16 19:00N 46°15' W 124°43'4 7.8
2018-May-16 18:28N 46°18' W 124°40'1 3.1
2018-May-16 18:00N 46°19' W 124°39'1 1.1
2018-May-16 17:30N 46°19' W 124°39'1 2.3
2018-May-16 17:01N 46°18' W 124°40'1 2.4
2018-May-16 16:30N 46°17' W 124°38'1 2.8
2018-May-16 16:00N 46°16' W 124°38'2 4.7
2018-May-16 15:30N 46°18' W 124°39'4 7.4
2018-May-16 15:00N 46°21' W 124°42'4 7.4
2018-May-16 14:30N 46°24' W 124°44'4 7.3
2018-May-16 14:00N 46°28' W 124°46'  

Dump ship's entire track history